createdAt,value
2019-03-27T00:01:05.872Z,22.75
2019-03-27T00:03:37.377Z,22.05
2019-03-27T00:06:08.817Z,22.27
2019-03-27T00:08:40.426Z,21.60
2019-03-27T00:11:11.868Z,22.22
2019-03-27T00:13:43.360Z,22.48
2019-03-27T00:16:14.959Z,22.07
2019-03-27T00:18:46.313Z,21.75
2019-03-27T00:21:17.701Z,21.70
2019-03-27T00:23:49.057Z,21.12
2019-03-27T00:26:20.715Z,21.55
2019-03-27T00:28:52.164Z,21.45
2019-03-27T00:31:23.539Z,20.97
2019-03-27T00:33:55.023Z,21.45
2019-03-27T00:36:26.571Z,20.92
2019-03-27T00:38:58.129Z,20.97
2019-03-27T00:41:29.510Z,21.27
2019-03-27T00:44:00.867Z,21.35
2019-03-27T00:46:32.296Z,21.30
2019-03-27T00:49:03.643Z,20.05
2019-03-27T00:51:34.954Z,20.40
2019-03-27T00:54:06.328Z,20.55
2019-03-27T00:56:38.112Z,20.55
2019-03-27T00:59:09.484Z,20.02
2019-03-27T01:01:40.943Z,20.05
2019-03-27T01:04:12.289Z,20.35
2019-03-27T01:06:43.962Z,20.05
2019-03-27T01:09:15.338Z,20.92
2019-03-27T01:11:46.709Z,20.25
2019-03-27T01:14:18.067Z,19.90
2019-03-27T01:16:49.411Z,19.32
2019-03-27T01:19:20.819Z,19.45
2019-03-27T01:21:52.340Z,19.10
2019-03-27T01:24:23.908Z,19.50
2019-03-27T01:26:55.376Z,19.00
2019-03-27T01:29:26.769Z,18.95
2019-03-27T01:31:58.233Z,18.55
2019-03-27T01:34:29.697Z,19.25
2019-03-27T01:37:01.188Z,18.95
2019-03-27T01:39:32.597Z,19.20
2019-03-27T01:42:04.029Z,19.12
2019-03-27T01:44:35.610Z,18.73
2019-03-27T01:47:07.027Z,18.98
2019-03-27T01:49:38.469Z,18.57
2019-03-27T01:52:10.014Z,18.50
2019-03-27T01:54:41.319Z,18.02
2019-03-27T01:57:12.911Z,18.65
2019-03-27T01:59:44.136Z,18.15
2019-03-27T02:02:15.663Z,18.20
2019-03-27T02:04:46.982Z,17.92
2019-03-27T02:07:18.587Z,18.75
2019-03-27T02:09:50.149Z,18.20
2019-03-27T02:12:21.717Z,17.95
2019-03-27T02:14:53.005Z,17.90
2019-03-27T02:17:24.448Z,17.35
2019-03-27T02:19:55.977Z,17.23
2019-03-27T02:22:27.340Z,17.12
2019-03-27T02:24:58.821Z,17.50
2019-03-27T02:27:30.261Z,17.30
2019-03-27T02:30:01.859Z,18.15
2019-03-27T02:32:33.249Z,17.15
2019-03-27T02:35:04.742Z,17.27
2019-03-27T02:37:36.296Z,16.90
2019-03-27T02:40:08.228Z,16.90
2019-03-27T02:42:39.833Z,16.67
2019-03-27T02:45:11.102Z,16.62
2019-03-27T02:47:42.491Z,16.57
2019-03-27T02:50:13.970Z,17.17
2019-03-27T02:52:45.687Z,16.57
2019-03-27T02:55:17.294Z,16.52
2019-03-27T02:57:48.836Z,16.35
2019-03-27T03:00:20.278Z,16.37
2019-03-27T03:02:51.694Z,16.30
2019-03-27T03:05:23.062Z,16.15
2019-03-27T03:07:54.487Z,16.02
2019-03-27T03:10:25.927Z,15.95
2019-03-27T03:12:57.601Z,16.20
2019-03-27T03:15:29.113Z,16.00
2019-03-27T03:18:00.445Z,15.50
2019-03-27T03:20:31.919Z,15.85
2019-03-27T03:23:03.304Z,15.72
2019-03-27T03:25:34.847Z,15.70
2019-03-27T03:28:06.391Z,16.05
2019-03-27T03:30:37.942Z,15.35
2019-03-27T03:33:09.475Z,15.55
2019-03-27T03:35:40.895Z,15.35
2019-03-27T03:38:12.435Z,15.48
2019-03-27T03:40:43.913Z,15.18
2019-03-27T03:43:15.488Z,15.48
2019-03-27T03:45:47.036Z,15.05
2019-03-27T03:48:18.721Z,15.10
2019-03-27T03:50:50.136Z,15.15
2019-03-27T03:53:21.451Z,14.33
2019-03-27T03:55:52.903Z,15.35
2019-03-27T03:58:24.403Z,14.70
2019-03-27T04:00:55.978Z,15.28
2019-03-27T04:03:27.762Z,14.90
2019-03-27T04:05:59.197Z,14.30
2019-03-27T04:08:30.837Z,14.43
2019-03-27T04:11:02.267Z,14.18
2019-03-27T04:13:33.680Z,13.75
2019-03-27T04:16:05.194Z,13.90
2019-03-27T04:18:36.964Z,13.78
2019-03-27T04:21:08.777Z,13.53
2019-03-27T04:23:40.253Z,13.78
2019-03-27T04:26:11.662Z,13.90
2019-03-27T04:28:43.142Z,14.10
2019-03-27T04:31:14.689Z,13.45
2019-03-27T04:33:46.178Z,13.70
2019-03-27T04:36:17.594Z,14.23
2019-03-27T04:38:49.075Z,13.68
2019-03-27T04:41:20.596Z,13.13
2019-03-27T04:43:52.044Z,13.32
2019-03-27T04:46:23.458Z,13.45
2019-03-27T04:48:54.986Z,13.15
2019-03-27T04:51:26.418Z,13.18
2019-03-27T04:53:57.822Z,13.60
2019-03-27T04:56:29.318Z,13.25
2019-03-27T04:59:00.877Z,13.28
2019-03-27T05:01:32.542Z,14.00
2019-03-27T05:04:05.439Z,13.32
2019-03-27T05:06:36.702Z,12.80
2019-03-27T05:09:08.770Z,12.45
2019-03-27T05:11:40.248Z,12.90
2019-03-27T05:14:11.599Z,13.50
2019-03-27T05:16:42.991Z,12.90
2019-03-27T05:19:14.418Z,12.93
2019-03-27T05:21:46.004Z,12.88
2019-03-27T05:24:17.285Z,12.55
2019-03-27T05:26:48.887Z,12.60
2019-03-27T05:29:20.420Z,12.65
2019-03-27T05:31:51.727Z,12.23
2019-03-27T05:34:23.478Z,12.30
2019-03-27T05:36:54.912Z,12.50
2019-03-27T05:39:26.200Z,11.90
2019-03-27T05:41:57.675Z,11.63
2019-03-27T05:44:29.116Z,12.37
2019-03-27T05:47:00.694Z,11.85
2019-03-27T05:49:32.134Z,11.60
2019-03-27T05:52:03.572Z,11.80
2019-03-27T05:54:35.071Z,11.78
2019-03-27T05:57:06.342Z,11.60
2019-03-27T05:59:37.776Z,11.60
2019-03-27T06:02:09.379Z,11.35
2019-03-27T06:04:41.428Z,11.68
2019-03-27T06:07:13.096Z,11.55
2019-03-27T06:09:45.328Z,11.40
2019-03-27T06:12:17.728Z,11.57
2019-03-27T06:14:50.076Z,11.65
2019-03-27T06:17:22.618Z,12.98
2019-03-27T06:19:54.703Z,13.05
2019-03-27T06:22:27.542Z,13.53
2019-03-27T06:25:00.407Z,13.10
2019-03-27T06:27:33.027Z,12.53
2019-03-27T06:30:07.042Z,13.20
2019-03-27T06:32:39.723Z,12.18
2019-03-27T06:35:12.246Z,12.05
2019-03-27T06:37:44.013Z,11.48
2019-03-27T06:40:15.737Z,11.68
2019-03-27T06:42:47.236Z,11.85
2019-03-27T06:45:18.840Z,10.50
2019-03-27T06:47:50.439Z,9.60
2019-03-27T06:50:22.142Z,10.30
2019-03-27T06:52:53.501Z,10.18
2019-03-27T06:55:24.905Z,10.20
2019-03-27T06:57:57.057Z,10.18
2019-03-27T07:00:38.451Z,10.30
2019-03-27T07:03:10.195Z,9.45
2019-03-27T07:05:41.624Z,10.08
2019-03-27T07:08:13.003Z,9.85
2019-03-27T07:10:44.506Z,10.10
2019-03-27T07:13:16.073Z,10.05
2019-03-27T07:15:47.680Z,10.35
2019-03-27T07:18:19.169Z,9.88
2019-03-27T07:20:50.675Z,10.20
2019-03-27T07:23:22.169Z,9.08
2019-03-27T07:25:53.732Z,7.85
2019-03-27T07:28:25.136Z,7.50
2019-03-27T07:30:56.577Z,7.00
2019-03-27T07:33:28.030Z,6.58
2019-03-27T07:35:59.642Z,7.20
2019-03-27T07:38:31.233Z,6.53
2019-03-27T07:41:02.783Z,6.17
2019-03-27T07:43:34.305Z,4.67
2019-03-27T07:46:05.911Z,4.87
2019-03-27T07:48:37.758Z,4.10
2019-03-27T07:51:09.517Z,4.87
2019-03-27T07:53:41.004Z,4.55
2019-03-27T07:56:12.695Z,3.58
2019-03-27T07:58:44.169Z,4.08
2019-03-27T08:01:17.360Z,3.85
2019-03-27T08:03:48.993Z,4.37
2019-03-27T08:06:20.373Z,3.12
2019-03-27T08:08:52.536Z,2.92
2019-03-27T08:11:23.990Z,3.30
2019-03-27T08:13:55.503Z,3.05
2019-03-27T08:16:26.944Z,2.83
2019-03-27T08:19:07.455Z,3.20
2019-03-27T08:21:33.065Z,3.20
2019-03-27T08:24:05.193Z,2.72
2019-03-27T08:26:36.715Z,2.90
2019-03-27T08:29:08.165Z,3.33
2019-03-27T08:31:39.724Z,3.00
2019-03-27T08:34:11.229Z,2.55
2019-03-27T08:36:43.893Z,3.22
2019-03-27T08:39:15.511Z,2.60
2019-03-27T08:41:47.218Z,2.60
2019-03-27T08:44:23.592Z,3.00
2019-03-27T08:46:58.763Z,2.80
2019-03-27T08:49:32.507Z,3.10
2019-03-27T08:52:04.660Z,2.83
2019-03-27T08:54:36.605Z,2.65
2019-03-27T08:57:08.216Z,2.33
2019-03-27T08:59:39.884Z,2.45
2019-03-27T09:02:11.782Z,2.62
2019-03-27T09:04:44.760Z,2.60
2019-03-27T09:07:16.434Z,2.60
2019-03-27T09:09:48.456Z,2.20
2019-03-27T09:12:20.156Z,2.42
2019-03-27T09:14:52.694Z,2.37
2019-03-27T09:17:24.604Z,2.50
2019-03-27T09:19:57.756Z,2.45
2019-03-27T09:22:30.001Z,2.50
2019-03-27T09:25:01.407Z,2.62
2019-03-27T09:27:32.947Z,2.40
2019-03-27T09:30:07.490Z,2.67
2019-03-27T09:32:39.025Z,2.62
2019-03-27T09:35:11.433Z,2.35
2019-03-27T09:37:43.445Z,2.30
2019-03-27T09:40:14.981Z,2.50
2019-03-27T09:42:47.360Z,2.92
2019-03-27T09:45:20.485Z,2.20
2019-03-27T09:47:52.793Z,2.33
2019-03-27T09:50:24.662Z,2.35
2019-03-27T09:52:56.481Z,2.37
2019-03-27T09:55:28.506Z,2.30
2019-03-27T09:58:02.426Z,2.40
2019-03-27T10:01:06.669Z,2.22
2019-03-27T10:03:39.376Z,2.52
2019-03-27T10:06:12.105Z,2.50
2019-03-27T10:08:45.395Z,2.20
2019-03-27T10:11:18.260Z,2.30
2019-03-27T10:13:49.796Z,2.05
2019-03-27T10:16:21.223Z,1.90
2019-03-27T10:18:54.154Z,2.00
2019-03-27T10:21:26.084Z,1.90
2019-03-27T10:23:58.651Z,2.15
2019-03-27T10:26:33.024Z,2.20
2019-03-27T10:29:06.255Z,2.22
2019-03-27T10:31:49.202Z,2.10
2019-03-27T10:34:21.976Z,2.75
2019-03-27T10:36:54.275Z,1.90
2019-03-27T10:39:29.421Z,2.33
2019-03-27T10:42:01.913Z,1.80
2019-03-27T10:44:34.511Z,2.00
2019-03-27T10:47:05.871Z,1.80
2019-03-27T10:49:37.338Z,1.90
2019-03-27T10:52:08.768Z,2.10
2019-03-27T10:54:40.236Z,2.27
2019-03-27T10:57:12.843Z,2.00
2019-03-27T10:59:45.160Z,2.00
2019-03-27T11:02:17.195Z,1.92
2019-03-27T11:04:51.429Z,2.02
2019-03-27T11:07:26.434Z,1.67
2019-03-27T11:09:58.962Z,1.90
2019-03-27T11:12:32.572Z,1.85
2019-03-27T11:15:09.365Z,1.75
2019-03-27T11:17:42.224Z,2.08
2019-03-27T11:20:15.369Z,2.10
2019-03-27T11:22:48.957Z,1.82
2019-03-27T11:25:21.267Z,1.90
2019-03-27T11:27:58.859Z,1.82
2019-03-27T11:30:53.429Z,2.08
2019-03-27T11:33:28.742Z,2.10
2019-03-27T11:36:00.091Z,1.70
2019-03-27T11:38:37.386Z,1.95
2019-03-27T11:41:15.249Z,1.80
2019-03-27T11:43:55.160Z,1.77
2019-03-27T11:46:25.595Z,3.30
2019-03-27T11:48:57.789Z,2.60
2019-03-27T11:51:29.661Z,1.77
2019-03-27T11:54:01.318Z,2.00
2019-03-27T11:56:32.722Z,2.10
2019-03-27T11:59:04.374Z,1.77
2019-03-27T12:01:40.783Z,2.00
2019-03-27T12:04:09.608Z,3.02
2019-03-27T12:06:41.166Z,1.80
2019-03-27T12:09:12.713Z,2.62
2019-03-27T12:11:44.450Z,2.15
2019-03-27T12:14:15.894Z,3.05
2019-03-27T12:16:50.050Z,2.10
2019-03-27T12:19:21.074Z,2.02
2019-03-27T12:21:54.803Z,1.90
2019-03-27T12:24:28.506Z,3.20
2019-03-27T12:26:59.241Z,1.72
2019-03-27T12:29:30.701Z,1.87
2019-03-27T12:32:02.658Z,1.98
2019-03-27T12:34:36.841Z,2.77
2019-03-27T12:37:08.780Z,4.60
2019-03-27T12:39:41.229Z,1.80
2019-03-27T12:42:35.081Z,1.98
2019-03-27T12:45:09.411Z,1.87
2019-03-27T12:47:40.730Z,1.80
2019-03-27T12:50:12.786Z,2.00
2019-03-27T12:52:44.680Z,2.33
2019-03-27T12:55:16.240Z,1.82
2019-03-27T12:57:48.210Z,1.72
2019-03-27T13:00:20.135Z,1.80
2019-03-27T13:02:51.860Z,1.70
2019-03-27T13:05:23.988Z,1.72
2019-03-27T13:07:55.657Z,1.67
2019-03-27T13:10:27.242Z,1.72
2019-03-27T13:12:59.134Z,5.00
2019-03-27T13:15:30.791Z,1.90
2019-03-27T13:18:02.314Z,2.15
2019-03-27T13:20:33.964Z,1.90
2019-03-27T13:23:06.072Z,1.87
2019-03-27T13:25:37.733Z,1.90
2019-03-27T13:28:09.665Z,1.77
2019-03-27T13:30:41.071Z,2.08
2019-03-27T13:33:12.527Z,1.90
2019-03-27T13:35:44.342Z,1.90
2019-03-27T13:38:16.564Z,1.72
2019-03-27T13:40:48.680Z,1.70
2019-03-27T13:43:20.213Z,1.72
2019-03-27T13:45:52.259Z,1.77
2019-03-27T13:48:27.474Z,2.00
2019-03-27T13:50:59.279Z,1.55
2019-03-27T13:53:31.041Z,1.60
2019-03-27T13:56:03.358Z,1.60
2019-03-27T13:58:35.710Z,1.80
2019-03-27T14:01:08.949Z,1.60
2019-03-27T14:03:40.400Z,1.98
2019-03-27T14:06:12.582Z,1.80
2019-03-27T14:08:43.954Z,1.50
2019-03-27T14:11:15.438Z,1.70
2019-03-27T14:13:46.871Z,1.75
2019-03-27T14:16:18.601Z,1.60
2019-03-27T14:18:50.066Z,1.45
2019-03-27T14:21:23.268Z,1.50
2019-03-27T14:23:54.603Z,1.70
2019-03-27T14:26:26.270Z,1.72
2019-03-27T14:28:58.036Z,1.50
2019-03-27T14:31:29.923Z,1.47
2019-03-27T14:34:01.357Z,1.67
2019-03-27T14:36:33.051Z,1.62
2019-03-27T14:39:05.988Z,1.60
2019-03-27T14:41:37.828Z,1.40
2019-03-27T14:44:09.348Z,1.62
2019-03-27T14:46:40.808Z,1.30
2019-03-27T14:49:12.552Z,1.52
2019-03-27T14:51:44.125Z,1.42
2019-03-27T14:54:15.680Z,2.00
2019-03-27T14:56:47.482Z,1.70
2019-03-27T14:59:19.052Z,1.62
2019-03-27T15:01:50.702Z,1.92
2019-03-27T15:04:22.184Z,1.80
2019-03-27T15:06:53.612Z,2.12
2019-03-27T15:09:25.125Z,1.62
2019-03-27T15:11:57.510Z,1.77
2019-03-27T15:14:28.999Z,1.87
2019-03-27T15:17:00.416Z,1.98
2019-03-27T15:19:32.136Z,1.95
2019-03-27T15:22:03.452Z,1.40
2019-03-27T15:24:35.055Z,1.50
2019-03-27T15:27:06.526Z,1.92
2019-03-27T15:29:38.165Z,1.70
2019-03-27T15:32:09.921Z,1.85
2019-03-27T15:34:41.465Z,1.95
2019-03-27T15:37:12.852Z,1.70
2019-03-27T15:39:44.385Z,1.65
2019-03-27T15:42:16.036Z,1.52
2019-03-27T15:44:49.832Z,1.60
2019-03-27T15:47:20.495Z,1.60
2019-03-27T15:49:52.018Z,1.80
2019-03-27T15:52:35.726Z,2.22
2019-03-27T15:54:56.773Z,1.98
2019-03-27T15:57:28.243Z,1.90
2019-03-27T15:59:59.697Z,1.70
2019-03-27T16:02:31.339Z,1.75
2019-03-27T16:05:02.781Z,1.60
2019-03-27T16:07:35.062Z,1.47
2019-03-27T16:10:06.936Z,1.72
2019-03-27T16:12:38.471Z,1.32
2019-03-27T16:15:10.489Z,1.80
2019-03-27T16:17:41.949Z,1.45
2019-03-27T16:20:13.394Z,1.72
2019-03-27T16:22:50.713Z,1.77
2019-03-27T16:25:21.072Z,1.60
2019-03-27T16:27:52.784Z,1.50
2019-03-27T16:30:24.769Z,1.60
2019-03-27T16:32:57.815Z,1.72
2019-03-27T16:35:29.706Z,1.42
2019-03-27T16:38:01.710Z,1.87
2019-03-27T16:41:05.596Z,1.50
2019-03-27T16:43:38.056Z,1.47
2019-03-27T16:46:10.993Z,1.55
2019-03-27T16:48:45.695Z,1.60
2019-03-27T16:51:18.835Z,1.62
2019-03-27T16:53:51.276Z,1.60
2019-03-27T16:56:22.928Z,1.55
2019-03-27T16:58:58.756Z,1.62
2019-03-27T17:01:37.807Z,1.75
2019-03-27T17:04:11.259Z,1.82
2019-03-27T17:06:44.757Z,1.50
2019-03-27T17:09:16.600Z,1.95
2019-03-27T17:11:51.793Z,1.80
2019-03-27T17:14:27.872Z,1.70
2019-03-27T17:17:04.853Z,2.27
2019-03-27T17:19:38.011Z,1.60
2019-03-27T17:22:19.455Z,1.50
2019-03-27T17:24:46.035Z,1.60
2019-03-27T17:27:18.377Z,1.65
2019-03-27T17:29:49.887Z,1.85
2019-03-27T17:32:21.317Z,1.90
2019-03-27T17:34:52.791Z,2.33
2019-03-27T17:37:25.003Z,2.02
2019-03-27T17:39:56.456Z,2.20
2019-03-27T17:42:27.690Z,1.75
2019-03-27T17:44:59.218Z,1.92
2019-03-27T17:47:30.798Z,1.70
2019-03-27T17:50:02.303Z,1.77
2019-03-27T17:52:33.774Z,1.90
2019-03-27T17:55:05.401Z,1.57
2019-03-27T17:57:36.798Z,1.80
2019-03-27T18:00:12.620Z,2.33
2019-03-27T18:02:43.998Z,2.75
2019-03-27T18:05:15.600Z,1.85
2019-03-27T18:07:46.838Z,1.70
2019-03-27T18:10:18.209Z,1.80
2019-03-27T18:12:49.876Z,1.70
2019-03-27T18:15:22.368Z,1.60
2019-03-27T18:17:53.704Z,1.70
2019-03-27T18:20:25.439Z,1.65
2019-03-27T18:22:57.219Z,1.70
2019-03-27T18:25:28.651Z,1.77
2019-03-27T18:28:00.227Z,2.00
2019-03-27T18:30:31.779Z,1.82
2019-03-27T18:33:03.288Z,2.02
2019-03-27T18:35:34.837Z,2.12
2019-03-27T18:38:06.416Z,3.10
2019-03-27T18:40:37.707Z,1.72
2019-03-27T18:43:08.878Z,1.70
2019-03-27T18:45:40.518Z,2.65
2019-03-27T18:48:12.087Z,1.72
2019-03-27T18:50:43.992Z,1.60
2019-03-27T18:53:15.511Z,1.90
2019-03-27T18:55:46.919Z,2.15
2019-03-27T18:58:18.302Z,2.30
2019-03-27T19:00:49.621Z,2.10
2019-03-27T19:03:21.083Z,1.90
2019-03-27T19:05:52.336Z,1.90
2019-03-27T19:08:23.845Z,3.40
2019-03-27T19:10:55.322Z,2.98
2019-03-27T19:13:26.821Z,1.85
2019-03-27T19:15:58.431Z,2.37
2019-03-27T19:18:29.841Z,1.85
2019-03-27T19:21:01.348Z,2.35
2019-03-27T19:23:32.745Z,1.67
2019-03-27T19:26:04.794Z,2.00
2019-03-27T19:28:36.509Z,1.57
2019-03-27T19:31:08.193Z,1.70
2019-03-27T19:33:39.642Z,1.70
2019-03-27T19:36:11.230Z,1.90
2019-03-27T19:38:42.699Z,2.40
2019-03-27T19:41:14.400Z,1.90
2019-03-27T19:43:46.081Z,2.50
2019-03-27T19:46:17.725Z,2.92
2019-03-27T19:48:49.399Z,2.50
2019-03-27T19:51:20.829Z,2.75
2019-03-27T19:53:52.191Z,3.08
2019-03-27T19:56:23.766Z,5.15
2019-03-27T19:58:55.185Z,3.02
2019-03-27T20:01:26.567Z,3.47
2019-03-27T20:03:58.045Z,3.30
2019-03-27T20:06:29.763Z,3.30
2019-03-27T20:09:01.269Z,3.30
2019-03-27T20:11:32.737Z,2.30
2019-03-27T20:14:04.364Z,2.40
2019-03-27T20:16:35.866Z,2.00
2019-03-27T20:19:07.330Z,2.22
2019-03-27T20:21:38.909Z,2.92
2019-03-27T20:24:10.318Z,2.20
2019-03-27T20:26:41.754Z,2.20
2019-03-27T20:29:13.082Z,2.27
2019-03-27T20:31:44.627Z,1.90
2019-03-27T20:34:16.114Z,1.92
2019-03-27T20:36:47.691Z,2.27
2019-03-27T20:39:19.206Z,2.45
2019-03-27T20:41:51.039Z,2.12
2019-03-27T20:44:22.671Z,2.60
2019-03-27T20:46:54.510Z,2.70
2019-03-27T20:49:25.851Z,2.70
2019-03-27T20:51:57.363Z,2.80
2019-03-27T20:54:28.986Z,2.72
2019-03-27T20:57:00.665Z,3.10
2019-03-27T20:59:32.015Z,2.00
2019-03-27T21:02:03.424Z,2.10
2019-03-27T21:04:34.808Z,1.85
2019-03-27T21:07:06.711Z,3.00
2019-03-27T21:09:38.495Z,2.30
2019-03-27T21:12:10.014Z,2.22
2019-03-27T21:14:41.345Z,2.02
2019-03-27T21:17:12.979Z,2.30
2019-03-27T21:19:44.405Z,1.90
2019-03-27T21:22:15.886Z,1.85
2019-03-27T21:24:47.317Z,1.70
2019-03-27T21:27:18.835Z,1.80
2019-03-27T21:29:50.530Z,1.60
2019-03-27T21:32:22.063Z,1.72
2019-03-27T21:34:53.671Z,1.62
2019-03-27T21:37:25.118Z,1.30
2019-03-27T21:39:56.547Z,1.45
2019-03-27T21:42:28.101Z,1.40
2019-03-27T21:44:59.820Z,1.70
2019-03-27T21:47:31.435Z,1.50
2019-03-27T21:50:02.992Z,1.60
2019-03-27T21:52:34.512Z,1.72
2019-03-27T21:55:06.163Z,1.50
2019-03-27T21:57:37.720Z,1.40
2019-03-27T22:00:09.387Z,1.70
2019-03-27T22:02:41.213Z,1.30
2019-03-27T22:05:12.706Z,1.65
2019-03-27T22:07:44.203Z,1.40
2019-03-27T22:10:15.846Z,1.40
2019-03-27T22:12:47.304Z,1.72
2019-03-27T22:15:18.893Z,1.70
2019-03-27T22:17:50.689Z,2.08
2019-03-27T22:20:22.220Z,1.60
2019-03-27T22:22:54.042Z,1.90
2019-03-27T22:25:35.493Z,1.50
2019-03-27T22:27:58.889Z,1.57
2019-03-27T22:30:30.691Z,1.75
2019-03-27T22:33:02.391Z,1.60
2019-03-27T22:35:34.022Z,2.05
2019-03-27T22:38:05.686Z,1.90
2019-03-27T22:40:37.346Z,1.85
2019-03-27T22:43:08.620Z,1.77
2019-03-27T22:45:40.139Z,1.82
2019-03-27T22:48:11.766Z,1.70
2019-03-27T22:50:43.343Z,1.60
2019-03-27T22:53:14.975Z,1.65
2019-03-27T22:55:50.103Z,1.50
2019-03-27T22:58:19.938Z,1.42
2019-03-27T23:00:52.299Z,1.90
2019-03-27T23:03:23.728Z,2.30
2019-03-27T23:05:55.483Z,1.50
2019-03-27T23:08:27.083Z,1.57
2019-03-27T23:10:58.538Z,1.47
2019-03-27T23:13:30.062Z,1.67
2019-03-27T23:16:01.602Z,1.80
2019-03-27T23:18:32.960Z,1.70
2019-03-27T23:21:04.451Z,1.72
2019-03-27T23:23:35.953Z,1.40
2019-03-27T23:26:07.429Z,1.30
2019-03-27T23:28:42.420Z,1.35
2019-03-27T23:31:32.752Z,1.77
2019-03-27T23:34:05.214Z,1.60
2019-03-27T23:36:36.998Z,1.50
2019-03-27T23:39:09.733Z,1.40
2019-03-27T23:41:41.457Z,1.40
2019-03-27T23:44:12.980Z,1.85
2019-03-27T23:46:44.469Z,1.30
2019-03-27T23:49:15.864Z,1.45
2019-03-27T23:51:47.495Z,1.60
2019-03-27T23:54:18.950Z,1.50
2019-03-27T23:56:50.428Z,1.60
2019-03-27T23:59:22.059Z,2.00
